Time;durP1;ratioP1;P1;durP2;ratioP2;P2;SDS_P1;SDS_P2;PMS_P1;PMS_P2;Temp;Humidity;BMP_temperature;BMP_pressure;BME280_temperature;BME280_humidity;BME280_pressure;Samples;Min_cycle;Max_cycle;Signal;HPM_P1;HPM_P2
2021/04/02 00:00:48;;;;;;;11.67;5.93;;;5.70;99.90;;;;;;6111581;23;20492;-79
2021/04/02 00:03:19;;;;;;;9.70;5.50;;;5.60;99.90;;;;;;6105428;23;20409;-79
2021/04/02 00:05:47;;;;;;;10.80;6.40;;;5.60;99.90;;;;;;6129575;23;20433;-79
2021/04/02 00:08:14;;;;;;;9.73;5.77;;;5.60;99.90;;;;;;6141584;23;20398;-79
2021/04/02 00:10:47;;;;;;;13.63;6.03;;;5.60;99.90;;;;;;6140687;23;20753;-79
2021/04/02 00:13:16;;;;;;;11.10;6.80;;;5.60;99.90;;;;;;6141660;23;20489;-79
2021/04/02 00:15:44;;;;;;;11.77;8.40;;;5.60;99.90;;;;;;6129955;23;20968;-79
2021/04/02 00:18:11;;;;;;;16.30;9.00;;;5.50;99.90;;;;;;6105807;23;20472;-79
2021/04/02 00:20:39;;;;;;;12.07;9.20;;;5.50;99.90;;;;;;6105617;23;20440;-79
2021/04/02 00:23:07;;;;;;;18.43;7.10;;;5.40;99.90;;;;;;6106105;23;20417;-79
2021/04/02 00:25:35;;;;;;;11.97;6.90;;;5.40;99.90;;;;;;6120080;23;20421;-79
2021/04/02 00:28:03;;;;;;;10.13;6.57;;;5.40;99.90;;;;;;6156314;23;20961;-79
2021/04/02 00:30:37;;;;;;;12.07;6.80;;;5.40;99.90;;;;;;6159133;23;20936;-79
2021/04/02 00:33:06;;;;;;;14.13;7.30;;;5.30;99.90;;;;;;6135564;23;20421;-79
2021/04/02 00:35:33;;;;;;;10.93;5.70;;;5.30;99.90;;;;;;6131959;23;20759;-79
2021/04/02 00:38:01;;;;;;;8.67;6.10;;;5.30;99.90;;;;;;6132500;23;20931;-79
2021/04/02 00:40:31;;;;;;;11.40;6.90;;;5.30;99.90;;;;;;6131911;23;20956;-79
2021/04/02 00:42:59;;;;;;;6.73;5.77;;;5.40;99.90;;;;;;6143243;23;20221;-79
2021/04/02 00:45:26;;;;;;;13.60;6.40;;;5.40;99.90;;;;;;6132820;23;20429;-79
2021/04/02 00:47:55;;;;;;;14.37;6.40;;;5.30;99.90;;;;;;6132535;23;20413;-79
2021/04/02 00:50:30;;;;;;;10.80;7.20;;;5.30;99.90;;;;;;6143703;23;20421;-79
2021/04/02 00:52:58;;;;;;;11.70;7.00;;;5.30;99.90;;;;;;6132181;23;20409;-79
2021/04/02 00:55:25;;;;;;;12.10;7.90;;;5.20;99.90;;;;;;6157135;23;20461;-79
2021/04/02 00:57:52;;;;;;;10.37;7.30;;;5.20;99.90;;;;;;6131825;23;20421;-79
2021/04/02 01:00:20;;;;;;;17.43;7.70;;;5.20;99.90;;;;;;6132165;23;20441;-79
2021/04/02 01:02:48;;;;;;;12.00;6.80;;;5.10;99.90;;;;;;6145088;23;20398;-79
2021/04/02 01:05:22;;;;;;;11.87;7.93;;;5.10;99.90;;;;;;6162533;23;20484;-79
2021/04/02 01:07:55;;;;;;;13.43;6.73;;;5.10;99.90;;;;;;6130948;23;20411;-79
2021/04/02 01:10:24;;;;;;;11.10;7.33;;;5.10;99.90;;;;;;6155854;23;20456;-79
2021/04/02 01:12:55;;;;;;;11.20;9.63;;;5.10;99.90;;;;;;6155454;23;20483;-79
2021/04/02 01:15:30;;;;;;;12.30;9.20;;;5.10;99.90;;;;;;6142514;23;20401;-79
2021/04/02 01:18:00;;;;;;;10.87;7.37;;;5.00;99.90;;;;;;6130761;23;20413;-78
2021/04/02 01:20:32;;;;;;;12.83;8.47;;;5.00;99.90;;;;;;6142387;23;20425;-79
2021/04/02 01:23:08;;;;;;;10.43;7.27;;;4.90;99.90;;;;;;6156604;23;20420;-79
2021/04/02 01:25:48;;;;;;;12.77;7.00;;;4.90;99.90;;;;;;6156337;23;20741;-79
2021/04/02 01:28:33;;;;;;;14.53;7.67;;;4.80;99.90;;;;;;6131625;23;20817;-79
2021/04/02 01:31:02;;;;;;;13.87;7.73;;;4.80;99.90;;;;;;6131750;23;20413;-79
2021/04/02 01:33:31;;;;;;;22.03;8.97;;;4.70;99.90;;;;;;6131703;23;20410;-79
2021/04/02 01:36:00;;;;;;;16.80;8.13;;;4.80;99.90;;;;;;6161526;23;20422;-79
2021/04/02 01:38:29;;;;;;;18.47;8.07;;;4.80;99.90;;;;;;6132299;23;20429;-79
2021/04/02 01:41:01;;;;;;;17.67;8.47;;;4.80;99.90;;;;;;6142350;23;20417;-79
2021/04/02 01:43:33;;;;;;;18.47;7.83;;;4.80;99.90;;;;;;6154416;23;20413;-79
2021/04/02 01:46:05;;;;;;;19.53;7.70;;;4.70;99.90;;;;;;6131235;23;20417;-79
2021/04/02 01:48:34;;;;;;;17.30;6.97;;;4.70;99.90;;;;;;6131244;23;20524;-79
2021/04/02 01:51:03;;;;;;;17.50;7.90;;;4.70;99.90;;;;;;6156326;23;20484;-79
2021/04/02 01:53:36;;;;;;;12.90;7.83;;;4.70;99.90;;;;;;6131279;23;20441;-79
2021/04/02 01:56:07;;;;;;;11.53;7.90;;;4.70;99.90;;;;;;6156323;23;20425;-79
2021/04/02 01:58:40;;;;;;;19.73;7.50;;;4.70;99.90;;;;;;6156610;23;20813;-79
2021/04/02 02:01:10;;;;;;;15.40;7.27;;;4.70;99.90;;;;;;6131226;23;20440;-78
2021/04/02 02:03:41;;;;;;;11.97;6.63;;;4.60;99.90;;;;;;6155665;23;20503;-79
2021/04/02 02:06:16;;;;;;;10.17;6.23;;;4.60;99.90;;;;;;6131777;23;20485;-79
2021/04/02 02:09:01;;;;;;;11.53;7.17;;;4.60;99.90;;;;;;6156408;23;20441;-79
2021/04/02 02:11:34;;;;;;;12.73;7.97;;;4.60;99.90;;;;;;6142283;23;20453;-78
2021/04/02 02:14:08;;;;;;;12.93;7.40;;;4.60;99.90;;;;;;6131237;23;20418;-79
2021/04/02 02:16:46;;;;;;;13.37;7.07;;;4.60;99.90;;;;;;6156305;23;20428;-79
2021/04/02 02:19:18;;;;;;;10.23;6.00;;;4.60;99.90;;;;;;6156552;23;20921;-79
2021/04/02 02:21:48;;;;;;;9.43;6.17;;;4.60;99.90;;;;;;6156789;23;20445;-78
2021/04/02 02:24:16;;;;;;;9.43;5.57;;;4.60;99.90;;;;;;6131688;23;20413;-79
2021/04/02 02:26:45;;;;;;;8.73;5.10;;;4.60;99.90;;;;;;6131609;23;20722;-79
2021/04/02 02:29:15;;;;;;;12.90;5.47;;;4.60;99.90;;;;;;6132078;23;20432;-79
2021/04/02 02:31:44;;;;;;;12.17;6.40;;;4.60;99.90;;;;;;6108195;23;20402;-79
2021/04/02 02:34:13;;;;;;;12.43;6.10;;;4.60;99.90;;;;;;6140773;23;20433;-79
2021/04/02 02:36:49;;;;;;;12.80;5.77;;;4.50;99.90;;;;;;6141613;23;20154;-78
2021/04/02 02:39:18;;;;;;;10.40;5.57;;;4.50;99.90;;;;;;6106741;23;20447;-79
2021/04/02 02:41:50;;;;;;;9.17;5.03;;;4.50;99.90;;;;;;6105832;23;20490;-79
2021/04/02 02:44:18;;;;;;;10.65;6.10;;;4.50;99.90;;;;;;6104957;23;20509;-79
2021/04/02 02:46:47;;;;;;;15.13;6.30;;;4.60;99.90;;;;;;6106095;23;20173;-79
2021/04/02 02:49:17;;;;;;;7.97;5.30;;;4.50;99.90;;;;;;6129741;23;20437;-79
2021/04/02 02:51:55;;;;;;;9.43;5.50;;;4.50;99.90;;;;;;6105830;23;20408;-78
2021/04/02 02:54:24;;;;;;;11.30;5.43;;;4.50;99.90;;;;;;6105894;23;20485;-79
2021/04/02 02:56:57;;;;;;;11.27;5.70;;;4.40;99.90;;;;;;6105984;23;20409;-79
2021/04/02 02:59:30;;;;;;;15.27;5.33;;;4.40;99.90;;;;;;6105581;23;20456;-79
2021/04/02 03:02:02;;;;;;;10.90;5.13;;;4.40;99.90;;;;;;6106467;23;20453;-79
2021/04/02 03:04:30;;;;;;;10.73;6.00;;;4.40;99.90;;;;;;6106336;23;20437;-79
2021/04/02 03:07:01;;;;;;;9.33;5.50;;;4.30;99.90;;;;;;6130103;23;20413;-80
2021/04/02 03:09:31;;;;;;;11.10;6.00;;;4.40;99.90;;;;;;6105981;23;20578;-79
2021/04/02 03:11:59;;;;;;;8.87;6.30;;;4.40;99.90;;;;;;6141655;23;20774;-79
2021/04/02 03:14:27;;;;;;;10.67;5.97;;;4.40;99.90;;;;;;6130194;23;20417;-79
2021/04/02 03:17:01;;;;;;;12.13;6.37;;;4.40;99.90;;;;;;6105974;23;20460;-79
2021/04/02 03:19:30;;;;;;;10.77;6.33;;;4.40;99.90;;;;;;6106737;23;20437;-79
2021/04/02 03:22:08;;;;;;;9.50;5.27;;;4.40;99.90;;;;;;6106159;23;20460;-79
2021/04/02 03:24:58;;;;;;;8.67;4.33;;;4.40;99.90;;;;;;6130579;23;20768;-79
2021/04/02 03:27:34;;;;;;;12.83;4.50;;;4.40;99.90;;;;;;6106303;23;20507;-79
2021/04/02 03:30:03;;;;;;;11.20;4.50;;;4.40;99.90;;;;;;6106005;23;20836;-79
2021/04/02 03:32:32;;;;;;;12.47;4.53;;;4.50;99.90;;;;;;6130815;23;20425;-79
2021/04/02 03:35:06;;;;;;;7.13;4.43;;;4.60;99.90;;;;;;6106676;23;20401;-79
2021/04/02 03:37:36;;;;;;;9.13;4.57;;;4.50;99.90;;;;;;6105853;23;20422;-79
2021/04/02 03:40:10;;;;;;;9.30;4.67;;;4.50;99.90;;;;;;6106296;23;20442;-78
2021/04/02 03:42:39;;;;;;;8.30;4.50;;;4.50;99.90;;;;;;6142557;23;20694;-79
2021/04/02 03:45:12;;;;;;;12.00;4.40;;;4.60;99.90;;;;;;6128149;23;20439;-79
2021/04/02 03:47:44;;;;;;;6.93;4.40;;;4.60;99.90;;;;;;6102136;23;20492;-79
2021/04/02 03:50:16;;;;;;;8.03;4.67;;;4.60;99.90;;;;;;6101107;23;20461;-78
2021/04/02 03:52:46;;;;;;;13.67;5.50;;;4.60;99.90;;;;;;6125329;23;20464;-78
2021/04/02 03:55:18;;;;;;;9.97;6.20;;;4.70;99.90;;;;;;6101719;23;20428;-78
2021/04/02 03:57:49;;;;;;;12.63;4.73;;;4.70;99.90;;;;;;6101315;23;20816;-78
2021/04/02 04:00:25;;;;;;;7.83;4.27;;;4.70;99.90;;;;;;6101332;23;20445;-78
2021/04/02 04:03:06;;;;;;;9.47;5.43;;;4.70;99.90;;;;;;6104377;23;20468;-78
2021/04/02 04:05:37;;;;;;;9.57;4.90;;;4.70;99.90;;;;;;6107246;23;20445;-78
2021/04/02 04:08:10;;;;;;;5.90;4.20;;;4.70;99.90;;;;;;6146213;23;20794;-78
2021/04/02 04:10:40;;;;;;;11.93;4.93;;;4.80;99.90;;;;;;6121195;23;20885;-78
2021/04/02 04:13:12;;;;;;;7.17;4.60;;;4.80;99.90;;;;;;6145999;23;20424;-78
2021/04/02 04:15:41;;;;;;;10.13;5.60;;;4.80;99.90;;;;;;6121526;23;20448;-78
2021/04/02 04:18:13;;;;;;;5.73;4.10;;;4.80;99.90;;;;;;6116716;23;20422;-78
2021/04/02 04:20:42;;;;;;;6.17;4.20;;;4.90;99.90;;;;;;6127261;23;20441;-78
2021/04/02 04:23:20;;;;;;;9.10;4.20;;;4.90;99.90;;;;;;6139115;23;20420;-78
2021/04/02 04:25:51;;;;;;;15.70;5.57;;;4.90;99.90;;;;;;6118705;23;20428;-78
2021/04/02 04:28:20;;;;;;;7.43;4.47;;;4.90;99.90;;;;;;6127438;23;20443;-78
2021/04/02 04:30:50;;;;;;;9.87;4.90;;;4.90;99.90;;;;;;6138924;23;20378;-78
2021/04/02 04:33:19;;;;;;;10.80;5.10;;;4.90;99.90;;;;;;6127037;23;20421;-78
2021/04/02 04:35:47;;;;;;;6.37;4.43;;;4.90;99.90;;;;;;6127191;23;20422;-78
2021/04/02 04:38:16;;;;;;;10.20;5.30;;;4.90;99.90;;;;;;6138347;23;20735;-78
2021/04/02 04:40:45;;;;;;;7.73;4.23;;;4.90;99.90;;;;;;6127122;23;20441;-78
2021/04/02 04:43:14;;;;;;;8.00;4.73;;;4.90;99.90;;;;;;6138550;23;20452;-78
2021/04/02 04:45:42;;;;;;;8.00;5.07;;;5.00;99.90;;;;;;6150818;23;20422;-78
2021/04/02 04:48:10;;;;;;;10.63;4.93;;;5.10;99.90;;;;;;6151419;23;20637;-78
2021/04/02 04:50:38;;;;;;;8.37;4.30;;;5.10;99.90;;;;;;6126762;23;20413;-78
2021/04/02 04:53:12;;;;;;;7.43;4.60;;;5.10;99.90;;;;;;6127424;23;20409;-78
2021/04/02 04:55:41;;;;;;;9.25;4.80;;;5.10;99.90;;;;;;6136889;23;20831;-78
2021/04/02 04:58:12;;;;;;;8.10;4.40;;;5.30;99.90;;;;;;6126665;23;20170;-78
2021/04/02 05:00:42;;;;;;;12.33;5.10;;;5.20;99.90;;;;;;6126704;23;20797;-78
2021/04/02 05:03:16;;;;;;;11.60;4.10;;;5.20;99.90;;;;;;6126782;23;20424;-78
2021/04/02 05:05:46;;;;;;;11.20;4.67;;;5.20;99.90;;;;;;6126982;23;20425;-78
2021/04/02 05:08:17;;;;;;;7.07;4.27;;;5.30;99.90;;;;;;6137896;23;20773;-78
2021/04/02 05:10:46;;;;;;;8.10;4.60;;;5.30;99.90;;;;;;6126733;23;20861;-78
2021/04/02 05:13:15;;;;;;;11.70;5.13;;;5.30;99.90;;;;;;6137861;23;20449;-78
2021/04/02 05:15:45;;;;;;;8.13;5.00;;;5.30;99.90;;;;;;6150831;23;20417;-78
2021/04/02 05:18:13;;;;;;;9.20;5.33;;;5.30;99.90;;;;;;6125809;23;20900;-78
2021/04/02 05:20:42;;;;;;;9.30;5.10;;;5.30;99.90;;;;;;6137687;23;20768;-78
2021/04/02 05:23:12;;;;;;;9.00;5.03;;;5.30;99.90;;;;;;6137735;23;20397;-78
2021/04/02 05:25:39;;;;;;;8.80;4.67;;;5.40;99.90;;;;;;6138123;23;20413;-78
2021/04/02 05:28:07;;;;;;;9.77;4.53;;;5.40;99.90;;;;;;6102897;23;20421;-78
2021/04/02 05:30:36;;;;;;;8.63;5.13;;;5.40;99.90;;;;;;6102899;23;20901;-78
2021/04/02 05:33:04;;;;;;;9.63;4.43;;;5.40;99.90;;;;;;6138249;23;20773;-78
2021/04/02 05:35:32;;;;;;;6.43;4.30;;;5.40;99.90;;;;;;6139508;23;20408;-78
2021/04/02 05:37:59;;;;;;;8.07;4.90;;;5.40;99.90;;;;;;6138230;23;20421;-78
2021/04/02 05:40:28;;;;;;;7.97;4.43;;;5.50;99.90;;;;;;6127347;23;20425;-78
2021/04/02 05:43:06;;;;;;;6.50;4.10;;;5.50;99.90;;;;;;6103286;23;20735;-78
2021/04/02 05:45:36;;;;;;;10.87;4.53;;;5.50;99.90;;;;;;6102529;23;20421;-79
2021/04/02 05:48:04;;;;;;;6.63;3.60;;;5.50;99.90;;;;;;6138235;23;20385;-79
2021/04/02 05:50:33;;;;;;;4.23;3.50;;;5.50;99.90;;;;;;6137643;23;20401;-79
2021/04/02 05:53:04;;;;;;;7.60;4.20;;;5.50;99.90;;;;;;6101997;23;20905;-79
2021/04/02 05:55:36;;;;;;;6.00;2.90;;;5.50;99.90;;;;;;6137749;23;20417;-79
2021/04/02 05:58:04;;;;;;;7.53;3.30;;;5.60;99.90;;;;;;6126422;23;20421;-79
2021/04/02 06:00:32;;;;;;;9.00;3.47;;;5.60;99.90;;;;;;6138934;23;20465;-78
2021/04/02 06:03:00;;;;;;;9.13;3.60;;;5.60;99.90;;;;;;6126231;23;20869;-79
2021/04/02 06:05:28;;;;;;;5.93;3.63;;;5.60;99.90;;;;;;6137609;23;20793;-79
2021/04/02 06:07:57;;;;;;;6.80;3.80;;;5.60;99.90;;;;;;6101745;23;20960;-78
2021/04/02 06:10:25;;;;;;;7.77;3.87;;;5.60;99.90;;;;;;6138305;23;20401;-78
2021/04/02 06:12:53;;;;;;;10.80;4.17;;;5.60;99.90;;;;;;6101971;23;20727;-78
2021/04/02 06:15:22;;;;;;;8.43;3.90;;;5.60;99.90;;;;;;6126720;23;20432;-78
2021/04/02 06:18:04;;;;;;;6.87;3.77;;;5.60;99.90;;;;;;6137920;23;20433;-78
2021/04/02 06:20:33;;;;;;;9.70;4.10;;;5.60;99.90;;;;;;6126601;23;20417;-78
2021/04/02 06:23:13;;;;;;;6.47;4.00;;;5.60;99.90;;;;;;6126304;23;20472;-78
2021/04/02 06:25:47;;;;;;;7.10;4.40;;;5.60;99.90;;;;;;6137602;23;20503;-78
2021/04/02 06:28:19;;;;;;;7.33;4.20;;;5.60;99.90;;;;;;6127191;23;20404;-78
2021/04/02 06:30:56;;;;;;;7.50;3.70;;;5.70;99.90;;;;;;6101669;23;20465;-78
2021/04/02 06:33:30;;;;;;;9.10;5.40;;;5.70;99.90;;;;;;6101539;23;20413;-78
2021/04/02 06:36:00;;;;;;;7.77;4.30;;;5.70;99.90;;;;;;6101567;23;20417;-77
2021/04/02 06:38:31;;;;;;;7.17;4.00;;;5.70;99.90;;;;;;6101343;23;20437;-77
2021/04/02 06:41:01;;;;;;;7.60;4.07;;;5.70;99.90;;;;;;6101012;23;20455;-77
2021/04/02 06:43:40;;;;;;;5.80;3.73;;;5.70;99.90;;;;;;6136869;23;20409;-78
2021/04/02 06:46:09;;;;;;;9.13;3.83;;;5.80;99.90;;;;;;6125927;23;20414;-78
2021/04/02 06:48:37;;;;;;;13.43;3.50;;;5.70;99.90;;;;;;6101589;23;20484;-79
2021/04/02 06:51:11;;;;;;;7.57;4.20;;;5.80;99.90;;;;;;6101165;23;20413;-79
2021/04/02 06:53:46;;;;;;;7.00;3.37;;;5.70;99.90;;;;;;6137406;23;20390;-79
2021/04/02 06:56:15;;;;;;;9.97;3.67;;;5.70;99.90;;;;;;6105896;23;20480;-79
2021/04/02 06:58:46;;;;;;;8.25;3.20;;;5.70;99.90;;;;;;6112442;23;20418;-79
2021/04/02 07:01:15;;;;;;;5.40;3.17;;;5.80;99.90;;;;;;6134691;23;20208;-79
2021/04/02 07:03:45;;;;;;;9.23;3.17;;;5.90;99.90;;;;;;6105872;23;20421;-79
2021/04/02 07:06:15;;;;;;;4.37;3.40;;;5.90;99.90;;;;;;6103942;23;20428;-79
2021/04/02 07:08:48;;;;;;;6.97;3.70;;;5.90;99.90;;;;;;6103397;23;20440;-79
2021/04/02 07:11:16;;;;;;;5.77;3.30;;;5.80;99.90;;;;;;6137151;23;20723;-79
2021/04/02 07:13:49;;;;;;;9.30;3.80;;;5.80;99.90;;;;;;6137010;23;20457;-79
2021/04/02 07:16:18;;;;;;;8.00;4.33;;;5.80;99.90;;;;;;6101175;23;20520;-79
2021/04/02 07:18:47;;;;;;;8.97;3.80;;;5.80;99.90;;;;;;6100837;23;20523;-79
2021/04/02 07:21:16;;;;;;;8.33;3.83;;;5.90;99.90;;;;;;6125610;23;20932;-79
2021/04/02 07:23:44;;;;;;;4.00;3.20;;;5.90;99.90;;;;;;6100667;23;20417;-79
2021/04/02 07:26:12;;;;;;;7.10;2.90;;;5.90;99.90;;;;;;6121874;23;20459;-79
2021/04/02 07:28:42;;;;;;;5.93;2.77;;;5.90;99.90;;;;;;6154584;23;20440;-79
2021/04/02 07:31:11;;;;;;;4.30;2.80;;;5.90;99.90;;;;;;6158947;23;20464;-79
2021/04/02 07:33:42;;;;;;;6.40;3.57;;;5.90;99.90;;;;;;6141290;23;20398;-79
2021/04/02 07:36:12;;;;;;;7.93;3.07;;;5.90;99.90;;;;;;6129107;23;20429;-78
2021/04/02 07:38:40;;;;;;;4.30;3.27;;;5.90;99.90;;;;;;6140908;23;20422;-79
2021/04/02 07:41:09;;;;;;;7.97;3.30;;;5.90;99.90;;;;;;6140575;23;20457;-79
2021/04/02 07:43:43;;;;;;;6.30;3.27;;;5.90;99.90;;;;;;6155478;23;20420;-78
2021/04/02 07:46:15;;;;;;;8.67;3.60;;;5.90;99.90;;;;;;6131270;23;20415;-79
2021/04/02 07:48:47;;;;;;;7.40;2.93;;;5.90;99.90;;;;;;6106535;23;20762;-78
2021/04/02 07:51:14;;;;;;;6.97;2.97;;;6.00;99.90;;;;;;6138311;23;20374;-77
2021/04/02 07:54:00;;;;;;;8.47;2.70;;;6.00;99.90;;;;;;6138241;23;20390;-77
2021/04/02 07:56:35;;;;;;;7.97;3.10;;;6.10;99.90;;;;;;6104632;23;20413;-79
2021/04/02 07:59:05;;;;;;;5.47;3.13;;;6.10;99.90;;;;;;6107450;23;20437;-79
2021/04/02 08:01:36;;;;;;;6.90;2.60;;;6.10;99.90;;;;;;6143383;23;20429;-79
2021/04/02 08:04:58;;;;;;;8.33;3.07;;;6.10;99.90;;;;;;6106348;23;20493;-79
2021/04/02 08:07:57;;;;;;;8.47;3.30;;;6.20;99.90;;;;;;6104908;23;20940;-79
2021/04/02 08:10:25;;;;;;;8.30;3.13;;;6.20;99.90;;;;;;6142337;23;20386;-79
2021/04/02 08:12:58;;;;;;;8.20;2.90;;;6.30;99.90;;;;;;6142341;23;20437;-79
2021/04/02 08:15:28;;;;;;;5.23;3.20;;;6.40;99.90;;;;;;6106674;23;20715;-79
2021/04/02 08:17:57;;;;;;;4.83;3.40;;;6.40;99.90;;;;;;6141923;23;20412;-79
2021/04/02 08:20:24;;;;;;;6.40;3.40;;;6.50;99.90;;;;;;6142317;23;20936;-79
2021/04/02 08:22:52;;;;;;;6.17;2.93;;;6.50;99.90;;;;;;6105568;23;20531;-79
2021/04/02 08:25:23;;;;;;;14.23;3.97;;;6.50;99.90;;;;;;6106399;23;20893;-79
2021/04/02 08:27:50;;;;;;;6.47;3.20;;;6.60;99.90;;;;;;6142448;23;20441;-79
2021/04/02 08:30:18;;;;;;;9.87;3.80;;;6.60;99.90;;;;;;6107461;23;20433;-79
2021/04/02 08:32:47;;;;;;;10.00;3.47;;;6.70;99.90;;;;;;6144952;23;20405;-79
2021/04/02 08:35:16;;;;;;;9.63;4.13;;;6.70;99.90;;;;;;6132057;23;20417;-78
2021/04/02 08:37:56;;;;;;;9.83;4.10;;;6.80;99.90;;;;;;6131722;23;20425;-79
2021/04/02 08:40:23;;;;;;;8.57;4.73;;;6.90;99.90;;;;;;6143647;23;20381;-79
2021/04/02 08:42:51;;;;;;;6.30;3.60;;;7.00;99.90;;;;;;6108497;23;20947;-80
2021/04/02 08:45:20;;;;;;;7.20;3.80;;;7.00;99.90;;;;;;6144209;23;20408;-80
2021/04/02 08:47:51;;;;;;;8.73;3.93;;;7.10;99.90;;;;;;6109192;23;20424;-79
2021/04/02 08:50:27;;;;;;;6.07;3.80;;;7.10;99.90;;;;;;6108737;23;20432;-79
2021/04/02 08:53:05;;;;;;;9.50;4.30;;;7.20;99.90;;;;;;6086042;23;20520;-79
2021/04/02 08:55:32;;;;;;;9.27;4.70;;;7.30;99.90;;;;;;6109041;23;20452;-79
2021/04/02 08:58:01;;;;;;;8.53;4.17;;;7.30;99.90;;;;;;6131819;23;20413;-79
2021/04/02 09:00:56;;;;;;;10.73;3.47;;;7.40;99.90;;;;;;6142600;23;20702;-79
2021/04/02 09:03:57;;;;;;;8.98;3.97;;;7.50;99.90;;;;;;6103938;23;20477;-79
2021/04/02 09:06:26;;;;;;;7.30;3.70;;;7.70;99.90;;;;;;6142572;23;20178;-79
2021/04/02 09:08:54;;;;;;;7.83;2.80;;;7.70;99.90;;;;;;6106770;23;20445;-79
2021/04/02 09:11:21;;;;;;;8.18;3.65;;;7.70;99.90;;;;;;6139100;23;20398;-79
2021/04/02 09:18:15;;;;;;;10.87;3.67;;;7.70;99.90;;;;;;6138281;23;20357;-78
2021/04/02 09:25:04;;;;;;;8.67;2.90;;;7.80;99.90;;;;;;6137304;23;20474;-78
2021/04/02 09:27:39;;;;;;;10.37;3.23;;;7.70;99.90;;;;;;6123972;23;20406;-78
2021/04/02 09:30:09;;;;;;;8.77;3.13;;;7.70;99.90;;;;;;6135567;23;20937;-78
2021/04/02 09:32:37;;;;;;;5.93;3.10;;;7.70;99.90;;;;;;6099559;23;20401;-78
2021/04/02 09:35:06;;;;;;;12.20;3.60;;;7.70;99.90;;;;;;6099372;23;20417;-77
2021/04/02 09:37:36;;;;;;;5.97;3.40;;;7.70;99.90;;;;;;6099095;23;20413;-77
2021/04/02 09:40:39;;;;;;;10.53;3.70;;;7.60;99.90;;;;;;6101614;23;20444;-77
2021/04/02 09:44:13;;;;;;;7.60;3.30;;;7.70;99.90;;;;;;6101878;23;20501;-77
2021/04/02 09:46:45;;;;;;;10.67;3.67;;;7.60;99.90;;;;;;6102804;23;20401;-77
2021/04/02 09:49:16;;;;;;;6.93;2.80;;;7.60;99.90;;;;;;6101800;23;20469;-79
2021/04/02 09:51:46;;;;;;;6.97;2.83;;;7.50;99.90;;;;;;6137866;23;20386;-78
2021/04/02 09:54:16;;;;;;;9.07;3.47;;;7.50;99.90;;;;;;6102177;23;20417;-78
2021/04/02 09:56:56;;;;;;;12.63;3.83;;;7.50;99.90;;;;;;6138382;23;20402;-78
2021/04/02 09:59:24;;;;;;;8.43;3.30;;;7.50;99.90;;;;;;6101290;23;20437;-77
2021/04/02 10:01:52;;;;;;;8.10;3.80;;;7.60;99.90;;;;;;6125504;23;20472;-77
2021/04/02 10:04:21;;;;;;;7.07;3.13;;;7.60;99.90;;;;;;6101353;23;20422;-79
2021/04/02 10:06:48;;;;;;;7.97;3.40;;;7.60;99.90;;;;;;6125597;23;20897;-79
2021/04/02 10:09:16;;;;;;;8.17;3.00;;;7.60;99.90;;;;;;6137311;23;20421;-78
2021/04/02 10:11:46;;;;;;;5.60;2.80;;;7.50;99.90;;;;;;6101048;23;20433;-78
2021/04/02 10:14:14;;;;;;;6.13;3.80;;;7.50;99.90;;;;;;6101049;23;20422;-78
2021/04/02 10:16:45;;;;;;;7.70;3.30;;;7.50;99.90;;;;;;6136652;23;20481;-78
2021/04/02 10:23:27;;;;;;;9.00;4.30;;;7.40;99.90;;;;;;6136997;23;20475;-77
2021/04/02 10:25:55;;;;;;;6.97;3.23;;;7.40;99.90;;;;;;6101057;23;20421;-77
2021/04/02 10:28:26;;;;;;;11.63;4.37;;;7.40;99.90;;;;;;6125580;23;20821;-78
2021/04/02 10:30:55;;;;;;;12.57;4.93;;;7.40;99.90;;;;;;6125779;23;20889;-78
2021/04/02 10:33:23;;;;;;;14.17;6.83;;;7.50;99.90;;;;;;6137479;23;20392;-78
2021/04/02 10:35:50;;;;;;;9.40;3.90;;;7.50;99.90;;;;;;6101915;23;20492;-77
2021/04/02 10:38:18;;;;;;;11.03;4.03;;;7.50;99.90;;;;;;6137611;23;20425;-77
2021/04/02 10:40:46;;;;;;;7.87;3.60;;;7.50;99.90;;;;;;6101991;23;20546;-77
2021/04/02 10:43:14;;;;;;;7.00;3.30;;;7.50;99.90;;;;;;6101114;23;20437;-78
2021/04/02 10:45:43;;;;;;;9.60;3.90;;;7.60;99.90;;;;;;6124093;23;20472;-77
2021/04/02 10:48:11;;;;;;;7.70;3.50;;;7.60;99.90;;;;;;6137285;23;20389;-79
2021/04/02 10:50:42;;;;;;;10.37;3.40;;;7.60;99.90;;;;;;6126267;23;20456;-78
2021/04/02 10:53:10;;;;;;;8.73;3.50;;;7.60;99.90;;;;;;6125016;23;20747;-78
2021/04/02 10:55:39;;;;;;;8.30;3.33;;;7.70;99.90;;;;;;6126223;23;20178;-78
2021/04/02 10:58:07;;;;;;;6.13;3.40;;;7.70;99.90;;;;;;6137490;23;20412;-78
2021/04/02 11:00:38;;;;;;;7.80;3.00;;;7.70;99.90;;;;;;6125574;23;20413;-78
2021/04/02 11:03:12;;;;;;;7.20;3.30;;;7.70;99.90;;;;;;6123863;23;20425;-78
2021/04/02 11:05:39;;;;;;;12.07;4.20;;;7.80;99.90;;;;;;6137013;23;20777;-78
2021/04/02 11:08:08;;;;;;;6.20;3.10;;;7.80;99.90;;;;;;6126004;23;20421;-78
2021/04/02 11:10:35;;;;;;;6.40;3.53;;;7.80;99.90;;;;;;6137456;23;20397;-78
2021/04/02 11:13:04;;;;;;;8.00;3.87;;;7.80;99.90;;;;;;6125325;23;20456;-78
2021/04/02 11:15:32;;;;;;;13.07;4.10;;;7.90;99.90;;;;;;6137042;23;20398;-78
2021/04/02 11:17:59;;;;;;;7.77;2.90;;;7.90;99.90;;;;;;6136000;23;20462;-78
2021/04/02 11:20:29;;;;;;;6.67;3.50;;;7.90;99.90;;;;;;6136765;23;20398;-78
2021/04/02 11:22:58;;;;;;;10.40;3.17;;;8.00;99.90;;;;;;6136624;23;20901;-78
2021/04/02 11:25:25;;;;;;;5.70;2.90;;;8.00;99.90;;;;;;6125133;23;20919;-78
2021/04/02 11:27:53;;;;;;;13.00;2.90;;;8.00;99.90;;;;;;6136683;23;20409;-78
2021/04/02 11:30:22;;;;;;;6.13;2.27;;;8.00;99.90;;;;;;6125391;23;20433;-78
2021/04/02 11:32:50;;;;;;;4.43;3.00;;;8.00;99.90;;;;;;6125758;23;20496;-78
2021/04/02 11:35:21;;;;;;;6.37;2.57;;;8.10;99.90;;;;;;6137187;23;20691;-78
2021/04/02 11:37:49;;;;;;;9.07;2.90;;;8.10;99.90;;;;;;6136847;23;20461;-78
2021/04/02 11:40:17;;;;;;;11.17;3.50;;;8.10;99.90;;;;;;6149904;23;20489;-78
2021/04/02 11:42:44;;;;;;;4.73;2.83;;;8.20;99.90;;;;;;6124853;23;20441;-78
2021/04/02 11:45:13;;;;;;;8.47;3.10;;;8.20;99.90;;;;;;6136388;23;20409;-78
2021/04/02 11:47:40;;;;;;;5.17;3.10;;;8.30;99.90;;;;;;6136882;23;20433;-78
2021/04/02 11:50:10;;;;;;;6.20;2.73;;;8.40;99.90;;;;;;6126729;23;20425;-78
2021/04/02 11:52:39;;;;;;;5.90;2.70;;;8.40;99.90;;;;;;6100716;23;20900;-78
2021/04/02 11:55:10;;;;;;;6.03;1.97;;;8.40;99.90;;;;;;6136201;23;20398;-78
2021/04/02 11:57:37;;;;;;;7.13;2.83;;;8.40;99.90;;;;;;6100783;23;20421;-78
2021/04/02 12:00:09;;;;;;;4.77;2.40;;;8.40;99.80;;;;;;6100784;23;20452;-78
2021/04/02 12:02:41;;;;;;;5.00;2.40;;;8.40;99.80;;;;;;6136487;23;20452;-78
2021/04/02 12:05:13;;;;;;;7.10;2.03;;;8.40;99.80;;;;;;6128222;23;20425;-78
2021/04/02 12:07:40;;;;;;;5.03;2.97;;;8.50;99.80;;;;;;6136315;23;20382;-78
2021/04/02 12:10:10;;;;;;;8.57;2.23;;;8.50;99.90;;;;;;6136574;23;20441;-78
2021/04/02 12:12:37;;;;;;;4.77;1.90;;;8.60;99.80;;;;;;6101494;23;20417;-78
2021/04/02 12:15:06;;;;;;;5.10;2.70;;;8.70;99.90;;;;;;6101012;23;20405;-78
2021/04/02 12:17:33;;;;;;;4.33;2.43;;;8.80;99.90;;;;;;6100720;23;20507;-78
2021/04/02 12:20:07;;;;;;;5.40;1.93;;;8.90;99.90;;;;;;6125042;23;20564;-78
2021/04/02 12:22:35;;;;;;;3.43;1.93;;;9.00;99.80;;;;;;6136169;23;20429;-77
2021/04/02 12:25:02;;;;;;;7.73;2.40;;;9.00;99.70;;;;;;6125022;23;20488;-77
2021/04/02 12:27:31;;;;;;;4.60;2.47;;;9.10;99.90;;;;;;6136908;23;20471;-77
2021/04/02 12:29:58;;;;;;;5.57;2.30;;;9.20;99.50;;;;;;6138126;23;20425;-77
2021/04/02 12:32:25;;;;;;;8.47;2.27;;;9.20;99.40;;;;;;6138262;23;20397;-77
2021/04/02 12:34:52;;;;;;;7.20;1.97;;;9.20;99.30;;;;;;6102342;23;20417;-77
2021/04/02 12:37:19;;;;;;;5.10;1.70;;;9.20;99.10;;;;;;6102381;23;20421;-78
2021/04/02 12:39:47;;;;;;;7.03;2.50;;;9.20;99.10;;;;;;6137019;23;20457;-77
2021/04/02 12:42:14;;;;;;;5.27;1.83;;;9.30;98.60;;;;;;6102305;23;20189;-77
2021/04/02 12:44:42;;;;;;;6.83;1.70;;;9.30;98.80;;;;;;6138014;23;20488;-77
2021/04/02 12:47:09;;;;;;;6.00;2.13;;;9.30;98.80;;;;;;6138052;23;20785;-77
2021/04/02 12:49:36;;;;;;;6.80;1.80;;;9.20;98.70;;;;;;6137071;23;20403;-77
2021/04/02 12:52:05;;;;;;;7.63;2.10;;;9.30;98.30;;;;;;6127358;23;20510;-77
2021/04/02 12:54:32;;;;;;;5.90;1.77;;;9.30;98.10;;;;;;6140162;23;20386;-77
2021/04/02 12:57:00;;;;;;;3.63;2.50;;;9.20;98.20;;;;;;6141690;23;20397;-77
2021/04/02 12:59:27;;;;;;;3.20;1.97;;;9.20;98.20;;;;;;6141404;23;20421;-77
2021/04/02 13:01:55;;;;;;;5.77;2.73;;;9.20;98.20;;;;;;6140947;23;20430;-78
2021/04/02 13:04:22;;;;;;;5.67;2.07;;;9.10;98.00;;;;;;6105029;23;20492;-78
2021/04/02 13:06:50;;;;;;;7.87;2.23;;;9.10;98.00;;;;;;6128270;23;20923;-78
2021/04/02 13:09:18;;;;;;;5.63;2.33;;;9.00;97.90;;;;;;6138584;23;20417;-78
2021/04/02 13:11:47;;;;;;;4.67;1.43;;;9.00;97.90;;;;;;6137360;23;20405;-78
2021/04/02 13:14:14;;;;;;;6.50;1.70;;;9.00;97.90;;;;;;6137413;23;20433;-78
2021/04/02 13:16:49;;;;;;;6.07;3.73;;;9.00;98.00;;;;;;6128235;23;20468;-78
2021/04/02 13:19:17;;;;;;;3.40;1.53;;;8.90;98.00;;;;;;6137672;23;20432;-78
2021/04/02 13:21:44;;;;;;;5.07;1.43;;;8.90;98.00;;;;;;6101736;23;20468;-78
2021/04/02 13:24:14;;;;;;;4.50;1.80;;;8.90;98.00;;;;;;6137762;23;20448;-77